Time;durP1;ratioP1;P1;durP2;ratioP2;P2;SDS_P1;SDS_P2;PMS_P1;PMS_P2;Temp;Humidity;BMP_temperature;BMP_pressure;BME280_temperature;BME280_humidity;BME280_pressure;Samples;Min_cycle;Max_cycle;Signal;HPM_P1;HPM_P2
2022/04/13 00:01:02;;;;;;;4.68;2.88;;;;;;;8.06;49.49;100089.19;3152010;28;20056;-64
2022/04/13 00:02:33;;;;;;;6.47;3.17;;;;;;;8.06;49.39;100088.34;3152952;28;20049;-64
2022/04/13 00:04:05;;;;;;;6.70;3.17;;;;;;;8.05;49.30;100090.09;3147411;28;20061;-64
2022/04/13 00:05:37;;;;;;;5.40;3.33;;;;;;;8.04;49.44;100082.34;3149403;28;20048;-64
2022/04/13 00:07:09;;;;;;;4.60;3.00;;;;;;;8.05;49.48;100089.25;3146492;28;20113;-66
2022/04/13 00:08:43;;;;;;;4.93;2.80;;;;;;;8.02;49.46;100082.41;3148416;28;20564;-65
2022/04/13 00:10:15;;;;;;;6.25;3.13;;;;;;;8.01;49.54;100078.09;3149540;28;20127;-64
2022/04/13 00:11:47;;;;;;;8.13;3.40;;;;;;;8.03;49.53;100081.50;3146725;28;20121;-64
2022/04/13 00:13:19;;;;;;;6.40;3.80;;;;;;;8.03;49.66;100084.09;3149423;28;20437;-64
2022/04/13 00:14:51;;;;;;;13.70;3.60;;;;;;;8.04;49.35;100087.53;3158226;28;20083;-64
2022/04/13 00:16:24;;;;;;;6.32;3.60;;;;;;;8.04;49.45;100083.19;3154603;28;20094;-63
2022/04/13 00:17:56;;;;;;;6.07;3.58;;;;;;;8.06;49.45;100077.97;3158215;28;20052;-62
2022/04/13 00:19:28;;;;;;;8.45;3.42;;;;;;;8.07;49.48;100075.31;3155762;28;20044;-63
2022/04/13 00:21:00;;;;;;;6.95;3.42;;;;;;;8.11;49.31;100082.13;3155621;28;20052;-63
2022/04/13 00:22:31;;;;;;;8.30;3.85;;;;;;;8.09;49.35;100072.69;3158251;28;20394;-63
2022/04/13 00:24:04;;;;;;;7.57;3.22;;;;;;;8.09;49.38;100073.53;3152391;28;20055;-64
2022/04/13 00:25:38;;;;;;;6.03;3.30;;;;;;;8.02;49.55;100073.78;3149329;28;20509;-64
2022/04/13 00:27:10;;;;;;;7.88;3.47;;;;;;;8.01;49.62;100085.03;3152073;28;20481;-64
2022/04/13 00:28:42;;;;;;;7.88;4.00;;;;;;;8.03;49.49;100083.25;3158155;28;20048;-64
2022/04/13 00:30:14;;;;;;;7.47;3.88;;;;;;;8.01;49.70;100082.44;3149514;28;20083;-64
2022/04/13 00:31:47;;;;;;;7.72;4.15;;;;;;;8.02;49.68;100084.16;3145998;28;20439;-64
2022/04/13 00:33:19;;;;;;;5.78;3.55;;;;;;;8.02;49.57;100081.56;3149249;28;20052;-63
2022/04/13 00:34:51;;;;;;;6.20;3.97;;;;;;;7.95;50.09;100078.28;3145972;28;20575;-64
2022/04/13 00:36:23;;;;;;;8.75;4.10;;;;;;;7.75;49.93;100059.00;3148060;28;20048;-64
2022/04/13 00:37:55;;;;;;;5.95;3.63;;;;;;;7.93;50.00;100083.53;3156124;28;20486;-65
2022/04/13 00:39:27;;;;;;;7.75;3.33;;;;;;;7.98;49.87;100075.59;3149800;28;20051;-65
2022/04/13 00:41:00;;;;;;;6.60;3.50;;;;;;;7.98;49.72;100079.03;3153403;28;20056;-65
2022/04/13 00:42:31;;;;;;;7.35;3.92;;;;;;;8.02;49.67;100076.38;3155822;28;20047;-66
2022/04/13 00:44:05;;;;;;;8.07;3.58;;;;;;;8.03;49.74;100073.72;3146496;28;20052;-65
2022/04/13 00:45:37;;;;;;;;;;;;;;;8.02;49.80;100074.63;3146306;28;20094;-65
2022/04/13 00:47:10;;;;;;;5.78;3.22;;;;;;;8.04;49.55;100077.16;3154218;28;20401;-65
2022/04/13 00:48:43;;;;;;;7.32;3.85;;;;;;;8.01;49.49;100072.06;3157657;28;20055;-65
2022/04/13 00:50:15;;;;;;;5.60;2.83;;;;;;;8.03;49.66;100078.06;3156830;28;20044;-65
2022/04/13 00:51:47;;;;;;;9.52;4.18;;;;;;;8.02;49.68;100069.44;3157752;28;20439;-65
2022/04/13 00:53:20;;;;;;;7.65;3.88;;;;;;;8.05;49.81;100081.47;3154575;28;20102;-64
2022/04/13 00:54:55;;;;;;;7.63;3.40;;;;;;;8.04;49.82;100075.41;3155727;28;20056;-64
2022/04/13 00:56:29;;;;;;;10.00;3.70;;;;;;;8.01;49.87;100074.66;3156462;28;20124;-64
2022/04/13 00:58:02;;;;;;;6.35;3.63;;;;;;;8.02;49.89;100074.63;3152975;28;20105;-64
2022/04/13 00:59:37;;;;;;;8.05;3.83;;;;;;;8.00;49.82;100073.81;3157150;28;20052;-65
2022/04/13 01:01:09;;;;;;;13.27;4.18;;;;;;;8.06;49.79;100077.97;3151476;28;20109;-65
2022/04/13 01:02:44;;;;;;;7.35;3.70;;;;;;;8.04;49.93;100075.41;3157737;28;20083;-65
2022/04/13 01:04:17;;;;;;;7.75;4.00;;;;;;;7.84;50.07;100038.84;3150416;28;20048;-66
2022/04/13 01:05:50;;;;;;;7.88;3.88;;;;;;;8.02;49.90;100071.19;3155934;28;20489;-66
2022/04/13 01:07:22;;;;;;;7.30;3.63;;;;;;;8.04;49.98;100074.56;3147877;28;20483;-66
2022/04/13 01:08:55;;;;;;;9.32;3.97;;;;;;;8.02;50.01;100069.44;3157737;28;20108;-66
2022/04/13 01:10:29;;;;;;;8.77;3.88;;;;;;;8.06;50.04;100072.78;3150336;28;20121;-66
2022/04/13 01:12:01;;;;;;;14.68;4.72;;;;;;;8.04;50.20;100075.41;3146075;28;20048;-66
2022/04/13 01:13:32;;;;;;;8.73;4.18;;;;;;;7.94;50.23;100061.03;3152553;28;20393;-66
2022/04/13 01:15:06;;;;;;;8.30;3.97;;;;;;;8.00;50.30;100070.38;3158000;28;20052;-66
2022/04/13 01:16:39;;;;;;;6.32;3.72;;;;;;;8.01;50.30;100072.06;3149391;28;20114;-66
2022/04/13 01:18:13;;;;;;;8.80;4.30;;;;;;;7.99;50.30;100072.13;3157471;28;20082;-65
2022/04/13 01:19:46;;;;;;;8.27;3.92;;;;;;;7.93;50.53;100074.91;3157657;28;20574;-65
2022/04/13 01:21:19;;;;;;;9.95;4.00;;;;;;;7.89;50.49;100068.94;3150649;28;20445;-66
2022/04/13 01:22:51;;;;;;;;;;;;;;;7.90;50.42;100068.06;3146322;28;20040;-65
2022/04/13 01:24:23;;;;;;;9.40;4.60;;;;;;;7.88;50.41;100077.63;3151182;28;19932;-65
2022/04/13 01:25:56;;;;;;;11.43;5.05;;;;;;;7.86;50.55;100073.38;3157435;28;20113;-66
2022/04/13 01:27:28;;;;;;;10.07;5.07;;;;;;;7.85;50.63;100076.84;3149614;28;20053;-66
2022/04/13 01:29:00;;;;;;;10.57;4.43;;;;;;;7.82;50.82;100075.19;3147250;28;20056;-66
2022/04/13 01:30:32;;;;;;;8.30;4.32;;;;;;;7.83;50.64;100073.44;3152860;28;20048;-66
2022/04/13 01:32:04;;;;;;;14.38;5.00;;;;;;;7.84;50.73;100073.44;3145969;28;20056;-66
2022/04/13 01:33:38;;;;;;;11.27;4.75;;;;;;;7.85;50.65;100074.28;3148268;28;20075;-66
2022/04/13 01:35:10;;;;;;;10.70;4.95;;;;;;;7.87;50.72;100068.16;3147209;28;20520;-65
2022/04/13 01:36:42;;;;;;;11.90;4.97;;;;;;;7.84;50.73;100068.25;3147530;28;20432;-66
2022/04/13 01:38:15;;;;;;;9.88;4.65;;;;;;;7.83;50.86;100074.28;3150288;28;20052;-66
2022/04/13 01:39:47;;;;;;;8.15;4.43;;;;;;;7.81;50.91;100070.03;3155782;28;20052;-66
2022/04/13 01:41:18;;;;;;;9.82;4.95;;;;;;;7.72;51.13;100060.81;3153716;28;20513;-66
2022/04/13 01:42:50;;;;;;;9.55;4.45;;;;;;;7.74;51.12;100080.59;3155745;28;20060;-64
2022/04/13 01:44:22;;;;;;;9.10;4.43;;;;;;;7.71;51.30;100072.91;3147713;28;20053;-65
2022/04/13 01:45:55;;;;;;;13.38;4.55;;;;;;;7.66;51.39;100074.81;3148199;28;20105;-65
2022/04/13 01:47:27;;;;;;;16.75;4.30;;;;;;;7.63;51.56;100071.44;3152753;28;20059;-64
2022/04/13 01:48:59;;;;;;;11.40;5.13;;;;;;;7.60;51.60;100071.53;3149279;28;20061;-66
2022/04/13 01:50:30;;;;;;;9.25;5.03;;;;;;;7.51;51.96;100067.44;3156611;28;20439;-66
2022/04/13 01:52:02;;;;;;;8.20;5.05;;;;;;;7.49;52.00;100071.84;3151850;28;20101;-65
2022/04/13 01:53:36;;;;;;;7.25;4.57;;;;;;;7.50;51.86;100073.53;3157033;28;20059;-66
2022/04/13 01:55:09;;;;;;;8.23;4.75;;;;;;;7.49;51.94;100074.44;3151397;28;20080;-66
2022/04/13 01:56:40;;;;;;;9.35;5.35;;;;;;;7.43;51.83;100059.91;3157136;28;20056;-65
2022/04/13 01:58:11;;;;;;;8.80;4.32;;;;;;;7.44;52.21;100064.19;3148563;28;20049;-65
2022/04/13 01:59:43;;;;;;;9.55;4.85;;;;;;;7.40;52.33;100066.94;3145069;28;20044;-65
2022/04/13 02:01:16;;;;;;;10.02;4.80;;;;;;;7.37;52.21;100060.09;3155058;28;20121;-65
2022/04/13 02:02:46;;;;;;;8.75;4.45;;;;;;;7.38;52.29;100069.53;3157060;28;20056;-64
2022/04/13 02:04:19;;;;;;;9.55;4.72;;;;;;;7.36;52.28;100075.66;3147780;28;20134;-64
2022/04/13 02:05:52;;;;;;;7.90;4.90;;;;;;;7.34;52.36;100067.09;3152665;28;20063;-64
2022/04/13 02:07:24;;;;;;;9.30;4.95;;;;;;;7.28;52.57;100068.13;3147338;28;20143;-65
2022/04/13 02:08:57;;;;;;;8.38;4.85;;;;;;;7.23;52.67;100070.81;3152486;28;20499;-64
2022/04/13 02:10:29;;;;;;;11.20;5.10;;;;;;;7.16;52.80;100071.00;3155581;28;20055;-65
2022/04/13 02:12:01;;;;;;;26.10;6.93;;;;;;;7.09;52.91;100075.50;3156334;28;20055;-65
2022/04/13 02:13:33;;;;;;;9.40;4.97;;;;;;;7.05;52.95;100079.09;3159628;28;20082;-65
2022/04/13 02:15:06;;;;;;;14.38;5.43;;;;;;;7.00;53.25;100075.75;3149448;28;20056;-65
2022/04/13 02:16:38;;;;;;;10.07;5.13;;;;;;;6.91;53.42;100073.41;3159523;28;20452;-64
2022/04/13 02:18:10;;;;;;;7.00;4.45;;;;;;;6.89;53.50;100075.19;3153393;28;20540;-65
2022/04/13 02:19:41;;;;;;;11.20;5.07;;;;;;;6.87;53.54;100076.97;3159516;28;20055;-64
2022/04/13 02:21:13;;;;;;;7.28;4.25;;;;;;;6.83;53.43;100071.88;3157191;28;20055;-64
2022/04/13 02:22:46;;;;;;;9.90;4.40;;;;;;;6.83;53.59;100078.78;3156431;28;20048;-65
2022/04/13 02:24:19;;;;;;;8.65;4.40;;;;;;;6.81;53.55;100075.38;3159221;28;20521;-65
2022/04/13 02:25:51;;;;;;;7.22;3.72;;;;;;;6.78;53.59;100076.31;3154225;28;20064;-64
2022/04/13 02:27:24;;;;;;;7.40;4.78;;;;;;;6.76;53.63;100077.22;3150192;28;20048;-64
2022/04/13 02:28:56;;;;;;;8.45;4.50;;;;;;;6.56;53.52;100044.91;3149069;28;20087;-65
2022/04/13 02:30:28;;;;;;;6.30;4.47;;;;;;;6.71;53.66;100076.50;3159631;28;20056;-65
2022/04/13 02:31:59;;;;;;;7.20;4.07;;;;;;;6.68;53.77;100071.38;3152316;28;20052;-65
2022/04/13 02:33:32;;;;;;;10.05;4.55;;;;;;;6.65;53.74;100071.47;3159126;28;20601;-64
2022/04/13 02:35:03;;;;;;;8.35;4.50;;;;;;;6.63;53.77;100078.44;3153510;28;20130;-64
2022/04/13 02:36:35;;;;;;;8.13;4.57;;;;;;;6.61;53.98;100087.06;3148147;28;20106;-65
2022/04/13 02:38:07;;;;;;;8.18;4.50;;;;;;;6.58;53.85;100076.78;3148912;28;20449;-65
2022/04/13 02:39:41;;;;;;;7.35;4.40;;;;;;;6.59;54.04;100078.47;3157073;28;20107;-65
2022/04/13 02:41:13;;;;;;;10.35;5.22;;;;;;;6.59;54.09;100072.47;3154816;28;20539;-65
2022/04/13 02:42:45;;;;;;;9.70;4.85;;;;;;;6.58;53.99;100066.44;3156389;28;20080;-65
2022/04/13 02:44:17;;;;;;;6.25;4.22;;;;;;;6.54;53.94;100058.81;3158184;28;20056;-64
2022/04/13 02:45:48;;;;;;;14.35;5.95;;;;;;;6.57;54.09;100072.53;3154455;28;20052;-64
2022/04/13 02:47:20;;;;;;;9.05;4.95;;;;;;;6.58;54.25;100070.78;3155751;28;20563;-65
2022/04/13 02:48:52;;;;;;;12.40;4.93;;;;;;;6.56;54.37;100063.03;3144000;28;20049;-65
2022/04/13 02:50:24;;;;;;;10.02;5.03;;;;;;;6.56;54.38;100067.38;3137772;28;20904;-64
2022/04/13 02:51:56;;;;;;;9.02;4.85;;;;;;;6.37;54.57;100041.94;3142946;28;20072;-64
2022/04/13 02:53:30;;;;;;;10.48;5.30;;;;;;;6.54;54.48;100064.00;3138080;28;20273;-64
2022/04/13 02:55:03;;;;;;;9.15;5.00;;;;;;;6.49;54.46;100053.75;3142334;28;20273;-64
2022/04/13 02:56:36;;;;;;;9.75;5.20;;;;;;;6.55;54.48;100063.09;3146827;28;20495;-64
2022/04/13 02:58:08;;;;;;;12.35;5.43;;;;;;;6.52;54.49;100060.59;3147459;28;20052;-64
2022/04/13 02:59:42;;;;;;;10.93;5.65;;;;;;;6.45;54.57;100046.94;3141442;28;20056;-64
2022/04/13 03:01:14;;;;;;;8.95;5.50;;;;;;;6.44;54.38;100044.38;3140391;28;20064;-63
2022/04/13 03:02:45;;;;;;;9.75;5.18;;;;;;;6.51;54.44;100059.72;3143083;28;20143;-63
2022/04/13 03:04:17;;;;;;;8.00;5.30;;;;;;;6.50;54.49;100063.19;3148937;28;20056;-63
2022/04/13 03:05:49;;;;;;;10.93;6.60;;;;;;;6.51;54.43;100064.06;3140472;28;20056;-63
2022/04/13 03:07:24;;;;;;;12.80;6.63;;;;;;;6.49;54.67;100056.31;3138589;28;20241;-63
2022/04/13 03:08:57;;;;;;;12.10;6.07;;;;;;;6.50;54.86;100057.16;3140028;28;20525;-64
2022/04/13 03:10:30;;;;;;;14.70;6.45;;;;;;;6.50;54.73;100060.59;3153141;28;20055;-63
2022/04/13 03:12:02;;;;;;;;;;;;;;;6.50;54.66;100065.78;3153224;28;20052;-63
2022/04/13 03:13:34;;;;;;;9.65;6.22;;;;;;;6.50;54.43;100064.94;3148629;28;19924;-64
2022/04/13 03:15:07;;;;;;;16.40;7.03;;;;;;;6.51;54.38;100062.31;3151041;28;20105;-64
2022/04/13 03:16:38;;;;;;;15.95;7.25;;;;;;;6.51;54.40;100069.25;3153702;28;20060;-64
2022/04/13 03:18:11;;;;;;;13.15;7.40;;;;;;;6.46;54.52;100056.41;3152883;28;20975;-65
2022/04/13 03:19:43;;;;;;;13.32;8.13;;;;;;;6.50;54.55;100062.34;3152160;28;20139;-65
2022/04/13 03:21:15;;;;;;;20.63;8.60;;;;;;;6.50;54.35;100067.53;3142231;28;20057;-64
2022/04/13 03:22:46;;;;;;;16.75;8.52;;;;;;;6.50;54.38;100065.78;3146966;28;20060;-64
2022/04/13 03:24:18;;;;;;;14.15;7.80;;;;;;;6.35;54.41;100043.72;3153733;28;20048;-64
2022/04/13 03:25:52;;;;;;;15.20;8.02;;;;;;;6.47;54.68;100068.44;3153028;28;20093;-64
2022/04/13 03:27:24;;;;;;;11.90;6.32;;;;;;;6.44;54.63;100071.09;3143481;28;20177;-64
2022/04/13 03:28:56;;;;;;;11.68;6.18;;;;;;;6.42;54.74;100062.56;3145111;28;20105;-64
2022/04/13 03:30:28;;;;;;;12.57;7.10;;;;;;;6.40;54.88;100064.31;3151429;28;20553;-65
2022/04/13 03:32:00;;;;;;;14.05;6.65;;;;;;;6.41;54.77;100073.75;3150362;28;20048;-65
2022/04/13 03:33:32;;;;;;;15.73;7.10;;;;;;;6.40;54.69;100071.22;3149018;28;20117;-66
2022/04/13 03:35:05;;;;;;;11.98;7.13;;;;;;;6.33;55.05;100065.31;3147103;28;20052;-65
2022/04/13 03:36:39;;;;;;;14.15;7.03;;;;;;;6.42;54.86;100080.66;3148387;28;20052;-64
2022/04/13 03:38:11;;;;;;;19.17;7.57;;;;;;;6.42;54.73;100090.13;3153363;28;20052;-65
2022/04/13 03:39:43;;;;;;;15.88;7.38;;;;;;;6.41;54.90;100091.88;3144425;28;20059;-65
2022/04/13 03:41:16;;;;;;;13.60;7.13;;;;;;;6.41;54.95;100093.63;3148513;28;20562;-64
2022/04/13 03:42:48;;;;;;;13.85;7.00;;;;;;;6.41;54.84;100094.44;3147674;28;20223;-65
2022/04/13 03:44:20;;;;;;;16.52;7.05;;;;;;;6.43;54.91;100099.59;3143399;28;20287;-64
2022/04/13 03:45:52;;;;;;;15.25;7.47;;;;;;;6.43;54.94;100105.63;3142675;28;20470;-64
2022/04/13 03:47:24;;;;;;;15.18;7.15;;;;;;;6.44;54.84;100101.31;3145716;28;20052;-64
2022/04/13 03:48:56;;;;;;;16.23;7.60;;;;;;;6.45;54.83;100100.41;3148166;28;20079;-64
2022/04/13 03:50:28;;;;;;;15.73;7.15;;;;;;;6.46;54.71;100105.56;3141184;28;20121;-64
2022/04/13 03:52:00;;;;;;;20.05;8.30;;;;;;;6.45;54.80;100101.28;3142985;28;20413;-65
2022/04/13 03:53:32;;;;;;;16.23;7.75;;;;;;;6.45;55.07;100105.56;3141250;28;20376;-66
2022/04/13 03:55:06;;;;;;;15.25;7.07;;;;;;;6.45;55.02;100105.56;3142237;28;20067;-65
2022/04/13 03:56:39;;;;;;;21.25;9.10;;;;;;;6.39;55.22;100093.66;3142187;28;20052;-65
2022/04/13 03:58:11;;;;;;;;;;;;;;;6.42;55.08;100106.53;3142015;28;20139;-64
2022/04/13 03:59:43;;;;;;;25.35;8.80;;;;;;;6.41;55.05;100107.38;3144216;28;19928;-65
2022/04/13 04:01:15;;;;;;;23.50;10.38;;;;;;;6.38;55.24;100107.47;3153177;28;20542;-65
2022/04/13 04:02:47;;;;;;;19.50;8.45;;;;;;;6.39;55.21;100111.78;3151356;28;20055;-65
2022/04/13 04:04:20;;;;;;;25.70;8.88;;;;;;;6.36;55.42;100117.00;3145357;28;20512;-65
2022/04/13 04:05:52;;;;;;;25.48;10.32;;;;;;;6.36;55.28;100120.44;3142945;28;20064;-64
2022/04/13 04:07:23;;;;;;;30.73;12.60;;;;;;;6.35;55.26;100121.31;3141948;28;20118;-65
2022/04/13 04:08:55;;;;;;;26.77;10.80;;;;;;;6.37;55.34;100123.88;3144262;28;20101;-64
2022/04/13 04:10:28;;;;;;;17.75;7.45;;;;;;;6.37;55.35;100119.56;3149178;28;20127;-64
2022/04/13 04:12:00;;;;;;;19.58;7.55;;;;;;;6.35;55.50;100121.31;3145964;28;20601;-64
2022/04/13 04:13:32;;;;;;;15.75;8.00;;;;;;;6.29;55.55;100123.19;3142601;28;20600;-65
2022/04/13 04:15:05;;;;;;;16.00;7.47;;;;;;;6.24;55.88;100125.03;3141015;28;20092;-65
2022/04/13 04:16:37;;;;;;;24.90;7.30;;;;;;;6.19;55.95;100121.72;3146590;28;20256;-65
2022/04/13 04:18:09;;;;;;;24.92;7.53;;;;;;;6.09;56.25;100124.50;3140987;28;20618;-65
2022/04/13 04:19:41;;;;;;;21.30;8.20;;;;;;;6.07;56.37;100130.59;3145581;28;20056;-65
2022/04/13 04:21:13;;;;;;;18.00;9.23;;;;;;;6.01;56.57;100130.72;3150534;28;20106;-65
2022/04/13 04:22:45;;;;;;;21.02;8.98;;;;;;;5.98;56.52;100128.19;3152037;28;20056;-64
2022/04/13 04:24:17;;;;;;;22.42;8.63;;;;;;;5.91;56.76;100124.84;3147947;28;20044;-65
2022/04/13 04:25:49;;;;;;;16.60;8.23;;;;;;;5.92;56.70;100142.06;3151532;28;20055;-64
2022/04/13 04:27:22;;;;;;;14.77;7.50;;;;;;;5.83;57.08;100137.94;3142304;28;20131;-67
2022/04/13 04:28:54;;;;;;;21.25;7.72;;;;;;;5.86;56.78;100137.03;3142294;28;20052;-63
2022/04/13 04:30:31;;;;;;;15.85;7.55;;;;;;;5.83;56.75;100142.25;3145269;28;20122;-64
2022/04/13 04:32:04;;;;;;;15.65;6.80;;;;;;;5.51;56.85;100107.56;3143267;28;20044;-67
2022/04/13 04:33:36;;;;;;;16.35;7.63;;;;;;;5.56;57.11;100125.53;3143670;28;20044;-69
2022/04/13 04:35:09;;;;;;;15.38;7.13;;;;;;;5.66;57.15;100150.34;3152197;28;20052;-68
2022/04/13 04:36:40;;;;;;;12.93;6.32;;;;;;;5.70;57.04;100149.38;3150696;28;20052;-65
2022/04/13 04:38:11;;;;;;;23.90;7.75;;;;;;;5.69;57.15;100158.88;3148705;28;20044;-71
2022/04/13 04:39:44;;;;;;;22.90;7.22;;;;;;;5.67;57.28;100152.88;3146191;28;20052;-69
2022/04/13 04:41:18;;;;;;;15.38;7.60;;;;;;;5.67;57.22;100152.03;3157991;28;20044;-69
2022/04/13 04:42:51;;;;;;;25.45;11.70;;;;;;;5.66;57.40;100161.50;3155816;28;20051;-69
2022/04/13 04:44:23;;;;;;;28.13;8.20;;;;;;;5.68;57.08;100153.75;3150215;28;20048;-66
2022/04/13 04:45:55;;;;;;;17.13;6.90;;;;;;;5.70;57.14;100165.72;3147102;28;20105;-67
2022/04/13 04:47:27;;;;;;;15.93;6.93;;;;;;;5.65;57.50;100157.25;3146613;28;20059;-65
2022/04/13 04:48:59;;;;;;;22.95;8.15;;;;;;;5.61;57.45;100163.31;3146095;28;20491;-67
2022/04/13 04:50:31;;;;;;;21.65;7.93;;;;;;;5.64;57.43;100163.28;3156291;28;20101;-67
2022/04/13 04:52:03;;;;;;;23.90;8.20;;;;;;;5.68;57.50;100169.25;3151762;28;20512;-67
2022/04/13 04:53:35;;;;;;;19.17;7.65;;;;;;;5.67;57.39;100159.78;3154251;28;20832;-66
2022/04/13 04:55:08;;;;;;;15.32;7.13;;;;;;;5.66;57.33;100166.69;3156381;28;20040;-67
2022/04/13 04:56:40;;;;;;;18.63;9.45;;;;;;;5.68;57.34;100166.66;3153888;28;20064;-65
2022/04/13 04:58:13;;;;;;;21.58;8.38;;;;;;;5.67;57.31;100167.53;3156914;28;20495;-66
2022/04/13 04:59:45;;;;;;;17.10;7.78;;;;;;;5.62;57.57;100167.63;3156367;28;20048;-67
2022/04/13 05:01:17;;;;;;;17.67;8.00;;;;;;;5.63;57.51;100171.91;3157403;28;20044;-67
2022/04/13 05:02:49;;;;;;;22.05;8.77;;;;;;;5.65;57.37;100172.75;3157511;28;20133;-65
2022/04/13 05:04:21;;;;;;;22.77;8.95;;;;;;;5.63;57.45;100165.91;3149089;28;20080;-69
2022/04/13 05:05:53;;;;;;;23.02;8.18;;;;;;;5.63;57.57;100176.22;3152170;28;20612;-67
2022/04/13 05:07:25;;;;;;;23.48;8.73;;;;;;;5.67;57.66;100186.47;3152138;28;20188;-66
2022/04/13 05:08:57;;;;;;;26.50;9.50;;;;;;;5.71;57.44;100179.53;3145813;28;20377;-65
2022/04/13 05:10:29;;;;;;;20.00;8.55;;;;;;;5.75;57.34;100181.16;3151112;28;20052;-66
2022/04/13 05:12:01;;;;;;;18.33;8.15;;;;;;;5.80;57.16;100176.75;3154597;28;20425;-65
2022/04/13 05:13:34;;;;;;;18.13;8.23;;;;;;;5.80;57.12;100169.00;3155215;28;20481;-66
2022/04/13 05:15:07;;;;;;;20.60;6.70;;;;;;;5.85;57.01;100168.91;3148841;28;20106;-66
2022/04/13 05:16:39;;;;;;;21.20;8.30;;;;;;;5.92;56.82;100173.09;3146591;28;20060;-68
2022/04/13 05:18:11;;;;;;;19.35;6.78;;;;;;;5.92;56.65;100158.41;3149255;28;20040;-65
2022/04/13 05:19:43;;;;;;;23.88;6.75;;;;;;;5.98;56.66;100167.81;3153595;28;20113;-65
2022/04/13 05:21:15;;;;;;;17.20;6.80;;;;;;;6.06;56.58;100168.53;3152698;28;20055;-67
2022/04/13 05:22:47;;;;;;;22.17;8.13;;;;;;;6.10;56.46;100162.38;3156799;28;20048;-65
2022/04/13 05:24:19;;;;;;;14.90;6.25;;;;;;;6.17;56.16;100165.69;3154957;28;20409;-64
2022/04/13 05:25:51;;;;;;;19.30;6.25;;;;;;;6.22;55.96;100170.78;3144462;28;20487;-63
2022/04/13 05:27:22;;;;;;;14.15;6.38;;;;;;;6.28;55.71;100168.06;3147302;28;20049;-63
2022/04/13 05:28:56;;;;;;;15.07;5.75;;;;;;;6.34;55.59;100176.53;3145903;28;20086;-65
2022/04/13 05:30:28;;;;;;;12.90;6.38;;;;;;;6.39;55.48;100171.28;3151435;28;20140;-64
2022/04/13 05:32:00;;;;;;;19.58;6.05;;;;;;;6.44;55.39;100169.41;3145484;28;20122;-63
2022/04/13 05:33:32;;;;;;;15.25;5.35;;;;;;;6.50;55.24;100166.69;3147212;28;20140;-64
2022/04/13 05:35:05;;;;;;;11.20;4.87;;;;;;;6.64;55.00;100170.72;3151585;28;20070;-66
2022/04/13 05:36:37;;;;;;;16.58;5.18;;;;;;;6.78;54.82;100176.41;3157321;28;20044;-63
2022/04/13 05:38:08;;;;;;;14.13;5.30;;;;;;;6.91;54.70;100171.78;3147371;28;20053;-67
2022/04/13 05:39:41;;;;;;;11.43;5.30;;;;;;;7.07;54.37;100179.16;3151178;28;20056;-64
2022/04/13 05:41:13;;;;;;;9.77;4.97;;;;;;;7.24;54.07;100185.63;3151842;28;20049;-64
2022/04/13 05:42:45;;;;;;;11.93;5.47;;;;;;;7.40;53.68;100179.19;3153423;28;20436;-68
2022/04/13 05:44:18;;;;;;;11.70;4.85;;;;;;;7.56;53.56;100179.63;3154960;28;20051;-67
2022/04/13 05:45:50;;;;;;;30.70;15.55;;;;;;;7.69;53.17;100180.13;3155499;28;20047;-67
2022/04/13 05:47:22;;;;;;;38.13;19.55;;;;;;;7.86;52.72;100177.94;3156545;28;20119;-67
2022/04/13 05:48:54;;;;;;;59.05;26.15;;;;;;;8.00;52.36;100174.09;3150448;28;20056;-67
2022/04/13 05:50:26;;;;;;;16.90;5.45;;;;;;;8.16;51.77;100180.53;3149294;28;20055;-66
2022/04/13 05:51:58;;;;;;;11.02;4.47;;;;;;;8.31;51.33;100187.03;3151807;28;20049;-67
2022/04/13 05:53:30;;;;;;;10.45;4.28;;;;;;;8.43;50.99;100177.19;3151521;28;20436;-64
2022/04/13 05:55:04;;;;;;;12.27;3.90;;;;;;;8.62;50.67;100180.03;3148840;28;20117;-65
2022/04/13 05:56:36;;;;;;;15.93;4.30;;;;;;;8.79;50.22;100174.34;3154242;28;20044;-66
2022/04/13 05:58:08;;;;;;;9.23;4.20;;;;;;;8.97;49.80;100180.69;3146816;28;20048;-65
2022/04/13 05:59:41;;;;;;;15.52;4.32;;;;;;;9.14;49.41;100181.84;3145318;28;20106;-67
2022/04/13 06:01:13;;;;;;;13.10;4.20;;;;;;;9.32;49.23;100176.91;3151797;28;20044;-64
2022/04/13 06:02:45;;;;;;;6.65;3.67;;;;;;;9.52;48.87;100180.56;3146271;28;20056;-70
2022/04/13 06:04:17;;;;;;;6.47;3.60;;;;;;;9.71;48.63;100192.03;3157434;28;20040;-69
2022/04/13 06:05:50;;;;;;;8.30;4.00;;;;;;;9.77;47.99;100170.16;3152376;28;20509;-70
2022/04/13 06:07:22;;;;;;;6.77;3.40;;;;;;;10.02;47.77;100185.72;3155146;28;20044;-77
2022/04/13 06:08:54;;;;;;;10.73;3.72;;;;;;;10.06;47.16;100184.72;3151489;28;20318;-69
2022/04/13 06:10:27;;;;;;;5.00;3.15;;;;;;;10.13;46.85;100180.97;3157491;28;20414;-69
2022/04/13 06:11:59;;;;;;;7.35;3.13;;;;;;;10.22;46.63;100187.59;3146669;28;20076;-69
2022/04/13 06:13:31;;;;;;;7.10;3.70;;;;;;;10.21;46.47;100175.50;3157250;28;20048;-73
2022/04/13 06:15:09;;;;;;;7.88;3.20;;;;;;;10.29;46.28;100181.25;3151425;28;20080;-69
2022/04/13 06:16:41;;;;;;;7.82;2.80;;;;;;;10.29;46.20;100164.81;3144874;28;20109;-71
2022/04/13 06:18:13;;;;;;;7.20;3.30;;;;;;;10.55;45.96;100184.63;3151808;28;20078;-70
2022/04/13 06:19:44;;;;;;;6.47;2.63;;;;;;;10.53;45.83;100163.00;3155487;28;20189;-74
2022/04/13 06:21:16;;;;;;;7.38;3.13;;;;;;;10.81;45.53;100186.22;3155794;28;20490;-72
2022/04/13 06:22:48;;;;;;;7.32;3.20;;;;;;;10.90;45.26;100178.03;3156889;28;20052;-72
2022/04/13 06:24:20;;;;;;;4.45;2.78;;;;;;;11.09;44.46;100192.03;3156048;28;20048;-72
2022/04/13 06:25:52;;;;;;;10.05;2.70;;;;;;;11.24;44.34;100187.94;3149797;28;20105;-71
2022/04/13 06:27:24;;;;;;;11.85;3.15;;;;;;;11.37;44.14;100183.03;3156320;28;20080;-67
2022/04/13 06:28:57;;;;;;;24.92;12.75;;;;;;;11.46;43.53;100185.25;3152225;28;20062;-69
2022/04/13 06:30:30;;;;;;;69.72;38.53;;;;;;;11.57;43.44;100190.84;3154994;28;20048;-69
2022/04/13 06:32:02;;;;;;;7.85;4.38;;;;;;;11.71;43.34;100194.63;3148999;28;20127;-72
2022/04/13 06:33:33;;;;;;;15.32;3.97;;;;;;;11.77;43.09;100196.97;3145184;28;20044;-71
2022/04/13 06:35:08;;;;;;;7.18;2.80;;;;;;;11.83;42.71;100183.63;3153805;28;20048;-70
2022/04/13 06:36:39;;;;;;;12.88;3.35;;;;;;;11.84;41.97;100191.41;3154145;28;20091;-70
2022/04/13 06:38:11;;;;;;;5.28;2.85;;;;;;;11.90;41.92;100185.13;3155679;28;20040;-64
2022/04/13 06:39:43;;;;;;;6.35;3.20;;;;;;;11.95;42.09;100187.50;3152330;28;20059;-66
2022/04/13 06:41:15;;;;;;;8.20;3.22;;;;;;;12.03;42.01;100188.00;3154743;28;20055;-65
2022/04/13 06:42:48;;;;;;;24.65;11.43;;;;;;;12.11;41.82;100193.75;3150574;28;20048;-66
2022/04/13 06:44:19;;;;;;;11.68;6.45;;;;;;;12.12;41.68;100187.59;3153929;28;20131;-66
2022/04/13 06:45:54;;;;;;;7.72;3.25;;;;;;;12.26;41.28;100189.59;3147631;28;20073;-65
2022/04/13 06:47:29;;;;;;;6.93;3.35;;;;;;;12.33;41.09;100193.59;3145130;28;20138;-67
2022/04/13 06:49:01;;;;;;;8.75;3.28;;;;;;;12.37;41.20;100197.78;3149736;28;20052;-65
2022/04/13 06:50:33;;;;;;;6.80;2.45;;;;;;;12.43;40.86;100188.81;3155707;28;20531;-67
2022/04/13 06:52:06;;;;;;;4.68;2.58;;;;;;;12.50;40.88;100185.81;3152058;28;20049;-67
2022/04/13 06:53:38;;;;;;;6.00;3.10;;;;;;;12.50;40.84;100180.59;3145165;28;20059;-67
2022/04/13 06:55:10;;;;;;;9.00;2.95;;;;;;;12.58;40.59;100180.25;3146396;28;20486;-68
2022/04/13 06:56:42;;;;;;;8.05;3.70;;;;;;;12.55;40.11;100188.25;3145640;28;20049;-69
2022/04/13 06:58:14;;;;;;;4.43;2.50;;;;;;;12.49;40.22;100178.06;3150217;28;20559;-68
2022/04/13 06:59:46;;;;;;;6.60;2.72;;;;;;;12.47;40.16;100190.34;3153103;28;20055;-70
2022/04/13 07:01:19;;;;;;;4.80;2.45;;;;;;;12.47;40.29;100191.19;3159285;28;20440;-68
2022/04/13 07:02:57;;;;;;;5.88;2.67;;;;;;;12.49;40.03;100201.59;3154511;28;20055;-69
2022/04/13 07:04:29;;;;;;;5.40;2.17;;;;;;;12.45;40.07;100187.81;3158986;28;20515;-72
2022/04/13 07:06:01;;;;;;;5.88;2.78;;;;;;;12.51;39.97;100189.28;3154077;28;20049;-68
2022/04/13 07:07:33;;;;;;;4.15;2.20;;;;;;;12.47;39.66;100190.34;3159351;28;20047;-66
2022/04/13 07:09:05;;;;;;;4.82;2.47;;;;;;;12.43;39.61;100192.28;3154819;28;20056;-66
2022/04/13 07:10:37;;;;;;;10.02;3.15;;;;;;;12.48;39.58;100192.91;3151776;28;20100;-64
2022/04/13 07:12:10;;;;;;;7.35;2.75;;;;;;;12.58;39.95;100187.25;3153430;28;20044;-65